Terminal Aerodrome Forecast
Issued by NWS

Home | Current Version | Previous Version | Graphics & Text | Print | Product List | Glossary On
Versions: 1 2 3 4 5 6 7 8 9 10 11 12 13 14 15
000
FTUS43 KGRB 170520
TAFATW
TAF
KATW 170520Z 1706/1806 21009KT P6SM SCT250
     FM171100 21011KT P6SM BKN080
     FM171400 21012G18KT P6SM OVC035 WS018/23035KT
     FM171600 22014G22KT 3SM -SHSN SCT022 OVC035
     FM172000 25010KT P6SM -SHSN BKN040
     FM180400 26008KT P6SM SCT035=

USA.gov is the U.S. government's official web portal to all federal, state and local government web resources and services.